Time;durP1;ratioP1;P1;durP2;ratioP2;P2;SDS_P1;SDS_P2;PMS_P1;PMS_P2;Temp;Humidity;BMP_temperature;BMP_pressure;BME280_temperature;BME280_humidity;BME280_pressure;Samples;Min_cycle;Max_cycle;Signal;HPM_P1;HPM_P2
2023/09/13 00:01:50;;;;;;;10.27;5.10;;;;;;;;;;4921697;29;20049;-79
2023/09/13 00:04:16;;;;;;;13.25;6.60;;;;;;;;;;4910205;29;20027;-75
2023/09/13 00:06:42;;;;;;;16.83;6.65;;;;;;;;;;4931940;29;20040;-80
2023/09/13 00:09:08;;;;;;;20.63;7.55;;;;;;;;;;4950161;29;20044;-82
2023/09/13 00:11:35;;;;;;;17.90;8.43;;;;;;;;;;4937974;29;20043;-81
2023/09/13 00:14:01;;;;;;;22.25;10.10;;;;;;;;;;4971622;29;20020;-81
2023/09/13 00:16:26;;;;;;;15.02;9.65;;;;;;;;;;4940858;29;20126;-80
2023/09/13 00:18:52;;;;;;;16.92;8.52;;;;;;;;;;4938698;29;20036;-80
2023/09/13 00:21:18;;;;;;;16.90;8.13;;;;;;;;;;4917193;29;20048;-81
2023/09/13 00:23:43;;;;;;;13.27;7.78;;;;;;;;;;4919695;29;20076;-80
2023/09/13 00:26:09;;;;;;;14.75;9.93;;;;;;;;;;4903925;29;20040;-80
2023/09/13 00:28:35;;;;;;;14.68;8.65;;;;;;;;;;4937741;29;20028;-81
2023/09/13 00:31:00;;;;;;;15.30;8.52;;;;;;;;;;4921726;29;20044;-80
2023/09/13 00:33:26;;;;;;;17.85;9.30;;;;;;;;;;4922493;29;20020;-80
2023/09/13 00:35:56;;;;;;;14.32;8.55;;;;;;;;;;4906216;29;20032;-79
2023/09/13 00:38:23;;;;;;;15.15;9.20;;;;;;;;;;4934720;29;20080;-81
2023/09/13 00:40:49;;;;;;;13.98;8.82;;;;;;;;;;4952319;29;20052;-80
2023/09/13 00:43:14;;;;;;;14.82;9.50;;;;;;;;;;4909012;29;20035;-79
2023/09/13 00:45:41;;;;;;;11.63;8.00;;;;;;;;;;4909726;29;20032;-78
2023/09/13 00:48:09;;;;;;;16.40;8.75;;;;;;;;;;4923983;29;20067;-77
2023/09/13 00:50:37;;;;;;;17.38;9.32;;;;;;;;;;4938239;29;20043;-79
2023/09/13 00:53:05;;;;;;;12.60;8.35;;;;;;;;;;4954789;29;20028;-81
2023/09/13 00:55:34;;;;;;;14.13;8.85;;;;;;;;;;4918085;29;20032;-79
2023/09/13 00:58:00;;;;;;;18.33;11.38;;;;;;;;;;4917879;29;20038;-80
2023/09/13 01:00:27;;;;;;;12.75;8.82;;;;;;;;;;4935173;29;20051;-79
2023/09/13 01:02:53;;;;;;;13.00;8.02;;;;;;;;;;4948471;29;20039;-80
2023/09/13 01:05:19;;;;;;;13.32;9.05;;;;;;;;;;4947283;29;20059;-79
2023/09/13 01:07:46;;;;;;;16.52;10.30;;;;;;;;;;4928255;29;20064;-79
2023/09/13 01:10:13;;;;;;;15.73;9.93;;;;;;;;;;4915338;29;20044;-80
2023/09/13 01:12:39;;;;;;;15.18;8.45;;;;;;;;;;4926316;29;20024;-80
2023/09/13 01:15:08;;;;;;;12.95;8.27;;;;;;;;;;4925595;29;20035;-81
2023/09/13 01:17:46;;;;;;;16.63;9.00;;;;;;;;;;4910718;29;20029;-79
2023/09/13 01:20:18;;;;;;;11.93;7.45;;;;;;;;;;4956964;29;20036;-80
2023/09/13 01:23:00;;;;;;;16.92;8.48;;;;;;;;;;4924053;29;20032;-81
2023/09/13 01:25:38;;;;;;;14.43;7.65;;;;;;;;;;4894120;29;20518;-79
2023/09/13 01:28:23;;;;;;;12.00;7.70;;;;;;;;;;4925477;29;20028;-80
2023/09/13 01:30:49;;;;;;;14.38;8.95;;;;;;;;;;4908366;29;20168;-79
2023/09/13 01:33:14;;;;;;;14.95;8.95;;;;;;;;;;4921950;29;20060;-79
2023/09/13 01:35:40;;;;;;;13.15;8.80;;;;;;;;;;4939663;29;20047;-79
2023/09/13 01:38:06;;;;;;;11.50;7.65;;;;;;;;;;4908045;29;20043;-79
2023/09/13 01:40:33;;;;;;;17.52;8.70;;;;;;;;;;4905070;29;20157;-79
2023/09/13 01:43:01;;;;;;;11.80;7.38;;;;;;;;;;4902312;29;20096;-80
2023/09/13 01:45:27;;;;;;;13.40;5.75;;;;;;;;;;4922368;29;20108;-79
2023/09/13 01:47:53;;;;;;;10.00;6.32;;;;;;;;;;4875042;29;20079;-79
2023/09/13 01:50:19;;;;;;;11.25;6.00;;;;;;;;;;4921327;29;20092;-78
2023/09/13 01:52:45;;;;;;;10.25;5.28;;;;;;;;;;4936209;29;20032;-80
2023/09/13 01:55:11;;;;;;;10.63;6.07;;;;;;;;;;4922171;29;20060;-79
2023/09/13 01:57:37;;;;;;;11.15;4.90;;;;;;;;;;4908125;29;20044;-80
2023/09/13 02:00:05;;;;;;;6.63;4.78;;;;;;;;;;4938634;29;20096;-80
2023/09/13 02:02:37;;;;;;;9.65;5.20;;;;;;;;;;4907396;29;20527;-80
2023/09/13 02:05:03;;;;;;;8.93;4.97;;;;;;;;;;4889526;29;20041;-80
2023/09/13 02:07:30;;;;;;;9.97;4.83;;;;;;;;;;4905354;29;20032;-80
2023/09/13 02:09:56;;;;;;;8.38;4.50;;;;;;;;;;4905026;29;20815;-80
2023/09/13 02:12:22;;;;;;;7.60;5.05;;;;;;;;;;4904184;29;20036;-80
2023/09/13 02:14:48;;;;;;;8.27;5.00;;;;;;;;;;4922638;29;20043;-79
2023/09/13 02:17:14;;;;;;;9.32;5.57;;;;;;;;;;4908581;29;20056;-80
2023/09/13 02:19:40;;;;;;;8.40;5.68;;;;;;;;;;4909211;29;20545;-80
2023/09/13 02:22:08;;;;;;;11.40;6.00;;;;;;;;;;4913424;29;20051;-79
2023/09/13 02:24:34;;;;;;;;;;;;;;;;;;4913529;29;20051;-79
2023/09/13 02:27:08;;;;;;;9.70;5.30;;;;;;;;;;4913530;29;19911;-79
2023/09/13 02:29:37;;;;;;;10.20;5.20;;;;;;;;;;4928428;29;20032;-80
2023/09/13 02:32:05;;;;;;;13.48;5.18;;;;;;;;;;4881628;29;20044;-81
2023/09/13 02:34:31;;;;;;;10.32;6.15;;;;;;;;;;4931555;29;20054;-81
2023/09/13 02:36:56;;;;;;;11.00;6.03;;;;;;;;;;4912869;29;20032;-80
2023/09/13 02:39:31;;;;;;;13.80;7.20;;;;;;;;;;4927095;29;20036;-79
2023/09/13 02:41:57;;;;;;;13.65;7.80;;;;;;;;;;4904763;29;20188;-80
2023/09/13 02:44:22;;;;;;;15.13;7.90;;;;;;;;;;4906035;29;20077;-78
2023/09/13 02:46:48;;;;;;;17.05;8.10;;;;;;;;;;4931035;29;20056;-80
2023/09/13 02:49:15;;;;;;;13.70;7.38;;;;;;;;;;4906625;29;20069;-78
2023/09/13 02:51:41;;;;;;;15.65;7.95;;;;;;;;;;4897809;29;20546;-80
2023/09/13 02:54:06;;;;;;;14.80;8.38;;;;;;;;;;4923309;29;20060;-80
2023/09/13 02:56:32;;;;;;;14.13;8.27;;;;;;;;;;4922904;29;20494;-79
2023/09/13 02:58:58;;;;;;;16.25;9.60;;;;;;;;;;4924873;29;20036;-81
2023/09/13 03:01:29;;;;;;;14.43;8.68;;;;;;;;;;4893445;29;20028;-80
2023/09/13 03:03:55;;;;;;;18.00;9.85;;;;;;;;;;4892960;29;20040;-80
2023/09/13 03:06:22;;;;;;;17.05;10.23;;;;;;;;;;4909088;29;20040;-79
2023/09/13 03:08:49;;;;;;;23.15;10.90;;;;;;;;;;4903889;29;20034;-79
2023/09/13 03:11:16;;;;;;;18.10;11.20;;;;;;;;;;4905385;29;20028;-79
2023/09/13 03:13:44;;;;;;;19.92;10.23;;;;;;;;;;4890975;29;20067;-79
2023/09/13 03:16:11;;;;;;;15.65;9.70;;;;;;;;;;4921810;29;20066;-79
2023/09/13 03:18:38;;;;;;;18.20;10.93;;;;;;;;;;4906684;29;20037;-81
2023/09/13 03:21:08;;;;;;;20.23;10.30;;;;;;;;;;4904498;29;20036;-78
2023/09/13 03:23:36;;;;;;;20.85;10.60;;;;;;;;;;4902622;29;20133;-79
2023/09/13 03:26:02;;;;;;;20.42;10.70;;;;;;;;;;4888525;29;20036;-76
2023/09/13 03:28:28;;;;;;;21.52;11.82;;;;;;;;;;4905704;29;20088;-79
2023/09/13 03:30:53;;;;;;;17.50;10.60;;;;;;;;;;4889813;29;20056;-78
2023/09/13 03:33:19;;;;;;;21.08;10.55;;;;;;;;;;4918845;29;20052;-79
2023/09/13 03:35:45;;;;;;;24.48;11.02;;;;;;;;;;4901586;29;20033;-77
2023/09/13 03:38:10;;;;;;;23.17;11.07;;;;;;;;;;4891731;29;20137;-78
2023/09/13 03:40:36;;;;;;;20.60;10.68;;;;;;;;;;4906580;29;20076;-77
2023/09/13 03:43:02;;;;;;;20.63;11.00;;;;;;;;;;4891320;29;20025;-77
2023/09/13 03:45:28;;;;;;;19.70;9.77;;;;;;;;;;4936166;29;20036;-77
2023/09/13 03:47:53;;;;;;;17.92;9.20;;;;;;;;;;4906160;29;20032;-77
2023/09/13 03:50:19;;;;;;;18.17;10.85;;;;;;;;;;4923786;29;20040;-77
2023/09/13 03:52:45;;;;;;;17.20;9.32;;;;;;;;;;4915078;29;20036;-79
2023/09/13 03:55:11;;;;;;;19.65;9.60;;;;;;;;;;4917664;29;20135;-78
2023/09/13 03:57:37;;;;;;;22.08;10.18;;;;;;;;;;4934349;29;20072;-79
2023/09/13 04:00:12;;;;;;;14.07;9.18;;;;;;;;;;4947845;29;20032;-77
2023/09/13 04:02:38;;;;;;;16.50;9.43;;;;;;;;;;4913782;29;20043;-77
2023/09/13 04:05:06;;;;;;;18.85;9.50;;;;;;;;;;4924505;29;20076;-80
2023/09/13 04:07:31;;;;;;;17.17;9.40;;;;;;;;;;4925155;29;20020;-77
2023/09/13 04:09:57;;;;;;;19.80;8.48;;;;;;;;;;4892411;29;20037;-76
2023/09/13 04:12:23;;;;;;;15.85;8.55;;;;;;;;;;4893589;29;20452;-77
2023/09/13 04:14:52;;;;;;;17.60;9.20;;;;;;;;;;4924609;29;20036;-77
2023/09/13 04:17:17;;;;;;;;;;;;;;;;;;4925068;29;20036;-77
2023/09/13 04:19:43;;;;;;;14.23;8.57;;;;;;;;;;4927302;29;19911;-76
2023/09/13 04:22:10;;;;;;;22.23;9.20;;;;;;;;;;4929070;29;20428;-77
2023/09/13 04:24:35;;;;;;;17.35;8.77;;;;;;;;;;4925845;29;20043;-76
2023/09/13 04:27:01;;;;;;;16.13;8.98;;;;;;;;;;4926804;29;20036;-77
2023/09/13 04:29:26;;;;;;;14.35;9.13;;;;;;;;;;4924636;29;20038;-76
2023/09/13 04:31:52;;;;;;;19.92;8.88;;;;;;;;;;4925566;29;20088;-77
2023/09/13 04:34:21;;;;;;;20.90;9.35;;;;;;;;;;4925113;29;20063;-76
2023/09/13 04:36:49;;;;;;;16.13;9.02;;;;;;;;;;4927717;29;20484;-76
2023/09/13 04:39:14;;;;;;;17.63;9.30;;;;;;;;;;4944829;29;20028;-76
2023/09/13 04:41:40;;;;;;;16.30;8.98;;;;;;;;;;4926732;29;20047;-76
2023/09/13 04:44:06;;;;;;;17.02;9.65;;;;;;;;;;4926227;29;20032;-75
2023/09/13 04:46:35;;;;;;;18.67;9.50;;;;;;;;;;4912566;29;20055;-76
2023/09/13 04:49:00;;;;;;;18.75;9.27;;;;;;;;;;4925586;29;20594;-75
2023/09/13 04:51:26;;;;;;;17.70;9.20;;;;;;;;;;4927483;29;20059;-76
2023/09/13 04:53:52;;;;;;;16.95;8.68;;;;;;;;;;4911503;29;20062;-76
2023/09/13 04:56:17;;;;;;;15.52;9.45;;;;;;;;;;4928941;29;20399;-76
2023/09/13 04:58:46;;;;;;;21.00;10.77;;;;;;;;;;4925707;29;20032;-75
2023/09/13 05:01:12;;;;;;;17.08;9.90;;;;;;;;;;4926871;29;20043;-77
2023/09/13 05:03:38;;;;;;;17.73;10.13;;;;;;;;;;4914012;29;20031;-76
2023/09/13 05:06:04;;;;;;;17.80;9.52;;;;;;;;;;4927627;29;20043;-76
2023/09/13 05:08:30;;;;;;;16.77;9.02;;;;;;;;;;4929051;29;20036;-75
2023/09/13 05:10:58;;;;;;;15.25;8.98;;;;;;;;;;4929433;29;20484;-75
2023/09/13 05:13:24;;;;;;;18.40;9.43;;;;;;;;;;4944643;29;20059;-76
2023/09/13 05:15:52;;;;;;;;;;;;;;;;;;4899941;29;20062;-76
2023/09/13 05:18:19;;;;;;;14.82;9.30;;;;;;;;;;4894098;29;19918;-76
2023/09/13 05:20:45;;;;;;;20.85;10.15;;;;;;;;;;4903458;29;20040;-75
2023/09/13 05:23:10;;;;;;;16.30;9.23;;;;;;;;;;4913600;29;20033;-75
2023/09/13 05:25:42;;;;;;;17.17;9.43;;;;;;;;;;4899963;29;20032;-75
2023/09/13 05:28:08;;;;;;;20.10;9.35;;;;;;;;;;4900577;29;20088;-74
2023/09/13 05:30:33;;;;;;;14.38;9.77;;;;;;;;;;4883747;29;20036;-75
2023/09/13 05:32:59;;;;;;;21.88;9.40;;;;;;;;;;4899857;29;20031;-75
2023/09/13 05:35:25;;;;;;;17.83;8.52;;;;;;;;;;4884238;29;20028;-76
2023/09/13 05:37:50;;;;;;;14.02;8.95;;;;;;;;;;4901261;29;20024;-75
2023/09/13 05:40:16;;;;;;;13.02;8.32;;;;;;;;;;4906213;29;20046;-76
2023/09/13 05:42:41;;;;;;;13.18;9.15;;;;;;;;;;4899896;29;20068;-75
2023/09/13 05:45:08;;;;;;;17.45;9.07;;;;;;;;;;4898506;29;20035;-75
2023/09/13 05:47:33;;;;;;;14.90;8.32;;;;;;;;;;4917738;29;20036;-74
2023/09/13 05:49:59;;;;;;;14.43;9.30;;;;;;;;;;4903145;29;20091;-75
2023/09/13 05:52:24;;;;;;;21.02;8.30;;;;;;;;;;4921502;29;20103;-75
2023/09/13 05:54:50;;;;;;;14.73;7.07;;;;;;;;;;4918501;29;20515;-75
2023/09/13 05:57:16;;;;;;;21.92;7.68;;;;;;;;;;4922069;29;20028;-75
2023/09/13 05:59:41;;;;;;;12.25;6.68;;;;;;;;;;4916911;29;20532;-75
2023/09/13 06:02:07;;;;;;;12.35;6.97;;;;;;;;;;4885012;29;20036;-76
2023/09/13 06:04:32;;;;;;;11.07;7.03;;;;;;;;;;4915512;29;20115;-74
2023/09/13 06:06:58;;;;;;;13.40;6.78;;;;;;;;;;4903732;29;20040;-75
2023/09/13 06:09:23;;;;;;;10.95;5.95;;;;;;;;;;4907423;29;20025;-76
2023/09/13 06:11:49;;;;;;;11.77;6.53;;;;;;;;;;4900923;29;20036;-76
2023/09/13 06:14:16;;;;;;;10.68;6.20;;;;;;;;;;4885634;29;20051;-75
2023/09/13 06:16:42;;;;;;;9.60;5.97;;;;;;;;;;4901971;29;20040;-75
2023/09/13 06:19:07;;;;;;;11.43;5.88;;;;;;;;;;4887275;29;20048;-76
2023/09/13 06:21:33;;;;;;;12.85;7.45;;;;;;;;;;4873211;29;20040;-76
2023/09/13 06:23:59;;;;;;;9.27;5.00;;;;;;;;;;4902017;29;20040;-77
2023/09/13 06:26:25;;;;;;;9.07;5.68;;;;;;;;;;4900497;29;20040;-75
2023/09/13 06:28:50;;;;;;;12.05;5.05;;;;;;;;;;4900070;29;20036;-75
2023/09/13 06:31:16;;;;;;;9.77;4.80;;;;;;;;;;4884924;29;20045;-76
2023/09/13 06:33:42;;;;;;;9.00;5.28;;;;;;;;;;4900233;29;20103;-76
2023/09/13 06:36:08;;;;;;;10.45;4.03;;;;;;;;;;4900490;29;20119;-75
2023/09/13 06:38:33;;;;;;;8.50;4.30;;;;;;;;;;4885753;29;20043;-76
2023/09/13 06:40:59;;;;;;;7.93;4.43;;;;;;;;;;4933949;29;20543;-76
2023/09/13 06:43:25;;;;;;;10.48;4.68;;;;;;;;;;4934053;29;20041;-76
2023/09/13 06:45:50;;;;;;;10.50;4.20;;;;;;;;;;4932980;29;20047;-76
2023/09/13 06:48:16;;;;;;;12.10;4.30;;;;;;;;;;4902543;29;20067;-76
2023/09/13 06:50:42;;;;;;;7.50;5.15;;;;;;;;;;4901057;29;20350;-76
2023/09/13 06:53:08;;;;;;;7.90;3.95;;;;;;;;;;4900426;29;20040;-76
2023/09/13 06:55:33;;;;;;;7.38;4.35;;;;;;;;;;4917589;29;20036;-75
2023/09/13 06:58:02;;;;;;;10.18;4.30;;;;;;;;;;4901409;29;20119;-75
2023/09/13 07:00:28;;;;;;;9.70;4.80;;;;;;;;;;4918474;29;20039;-76
2023/09/13 07:02:53;;;;;;;8.15;4.78;;;;;;;;;;4919463;29;20114;-76
2023/09/13 07:05:19;;;;;;;8.65;4.47;;;;;;;;;;4922504;29;20035;-77
2023/09/13 07:07:45;;;;;;;6.20;4.20;;;;;;;;;;4924010;29;20055;-77
2023/09/13 07:10:10;;;;;;;6.57;4.43;;;;;;;;;;4921143;29;20488;-76
2023/09/13 07:12:36;;;;;;;7.53;4.68;;;;;;;;;;4918613;29;20449;-76
2023/09/13 07:15:02;;;;;;;8.77;4.28;;;;;;;;;;4920143;29;20115;-77
2023/09/13 07:17:27;;;;;;;11.07;4.38;;;;;;;;;;4904889;29;20055;-76
2023/09/13 07:19:56;;;;;;;8.00;4.25;;;;;;;;;;4921735;29;20024;-76
2023/09/13 07:22:22;;;;;;;5.28;3.10;;;;;;;;;;4922703;29;20079;-76
2023/09/13 07:24:47;;;;;;;5.47;3.47;;;;;;;;;;4904099;29;20040;-76
2023/09/13 07:27:13;;;;;;;5.85;2.97;;;;;;;;;;4921717;29;20094;-75
2023/09/13 07:29:38;;;;;;;8.00;3.40;;;;;;;;;;4923593;29;20024;-76
2023/09/13 07:32:04;;;;;;;6.28;3.22;;;;;;;;;;4906234;29;20322;-76
2023/09/13 07:34:30;;;;;;;6.80;3.10;;;;;;;;;;4915445;29;20032;-76
2023/09/13 07:36:55;;;;;;;6.57;3.60;;;;;;;;;;4915030;29;20029;-76
2023/09/13 07:39:21;;;;;;;4.80;2.65;;;;;;;;;;4918460;29;20032;-76
2023/09/13 07:41:46;;;;;;;7.68;3.08;;;;;;;;;;4919313;29;20609;-76
2023/09/13 07:44:12;;;;;;;4.85;2.05;;;;;;;;;;4918592;29;20059;-76
2023/09/13 07:46:37;;;;;;;7.25;1.95;;;;;;;;;;4886638;29;20147;-78
2023/09/13 07:49:04;;;;;;;4.90;1.70;;;;;;;;;;4919992;29;20047;-76
2023/09/13 07:51:33;;;;;;;3.75;1.77;;;;;;;;;;4920778;29;20036;-76
2023/09/13 07:54:03;;;;;;;3.65;1.83;;;;;;;;;;4907211;29;20094;-76
2023/09/13 07:56:29;;;;;;;3.63;2.00;;;;;;;;;;4906998;29;20036;-77
2023/09/13 07:58:55;;;;;;;2.55;1.50;;;;;;;;;;4923071;29;20032;-76
2023/09/13 08:01:20;;;;;;;5.03;1.92;;;;;;;;;;4890291;29;20040;-77
2023/09/13 08:03:46;;;;;;;5.60;1.88;;;;;;;;;;4920880;29;20084;-76
2023/09/13 08:06:11;;;;;;;8.75;2.03;;;;;;;;;;4923544;29;20039;-76
2023/09/13 08:08:37;;;;;;;6.25;2.30;;;;;;;;;;4922583;29;20044;-76
2023/09/13 08:11:03;;;;;;;3.55;1.73;;;;;;;;;;4906168;29;20071;-76
2023/09/13 08:13:29;;;;;;;4.38;2.10;;;;;;;;;;4937075;29;20505;-76
2023/09/13 08:15:55;;;;;;;4.70;1.88;;;;;;;;;;4904675;29;20032;-76
2023/09/13 08:18:20;;;;;;;5.57;1.65;;;;;;;;;;4906000;29;20055;-77
2023/09/13 08:20:46;;;;;;;4.32;1.70;;;;;;;;;;4915545;29;20059;-76
2023/09/13 08:23:11;;;;;;;6.93;2.17;;;;;;;;;;4915190;29;20032;-76
2023/09/13 08:25:37;;;;;;;4.05;1.85;;;;;;;;;;4935039;29;20024;-76
2023/09/13 08:28:03;;;;;;;6.82;1.80;;;;;;;;;;4923923;29;20035;-77
2023/09/13 08:30:30;;;;;;;3.63;1.95;;;;;;;;;;4924117;29;20070;-76
2023/09/13 08:32:55;;;;;;;5.38;2.05;;;;;;;;;;4908196;29;20350;-76
2023/09/13 08:35:21;;;;;;;3.22;2.17;;;;;;;;;;4920130;29;20068;-77
2023/09/13 08:37:47;;;;;;;11.27;2.45;;;;;;;;;;4935050;29;20330;-76
2023/09/13 08:40:13;;;;;;;2.95;1.73;;;;;;;;;;4935655;29;20029;-76
2023/09/13 08:42:43;;;;;;;6.88;1.80;;;;;;;;;;4908661;29;20120;-75
2023/09/13 08:45:09;;;;;;;4.15;1.50;;;;;;;;;;4938006;29;20060;-76
2023/09/13 08:47:38;;;;;;;3.67;1.60;;;;;;;;;;4910420;29;20032;-76
2023/09/13 08:50:05;;;;;;;5.30;1.83;;;;;;;;;;4921284;29;20052;-76
2023/09/13 08:52:31;;;;;;;3.80;2.05;;;;;;;;;;4906372;29;20071;-76
2023/09/13 08:54:57;;;;;;;2.88;1.80;;;;;;;;;;4904954;29;20564;-76
2023/09/13 08:57:27;;;;;;;4.00;1.90;;;;;;;;;;4904359;29;20060;-76
2023/09/13 08:59:53;;;;;;;4.40;2.08;;;;;;;;;;4903099;29;20028;-76
2023/09/13 09:02:21;;;;;;;5.22;1.80;;;;;;;;;;4885946;29;20040;-77
2023/09/13 09:04:47;;;;;;;3.17;1.75;;;;;;;;;;4922054;29;20024;-76
2023/09/13 09:07:13;;;;;;;3.53;2.00;;;;;;;;;;4910955;29;20047;-77
2023/09/13 09:09:39;;;;;;;6.28;2.58;;;;;;;;;;4929355;29;20039;-76
2023/09/13 09:12:06;;;;;;;3.50;2.10;;;;;;;;;;4927060;29;20095;-75
2023/09/13 09:14:32;;;;;;;3.15;1.67;;;;;;;;;;4908191;29;20032;-76
2023/09/13 09:16:58;;;;;;;3.42;1.70;;;;;;;;;;4904841;29;20377;-76
2023/09/13 09:19:24;;;;;;;4.53;1.88;;;;;;;;;;4904927;29;20023;-76
2023/09/13 09:21:51;;;;;;;5.13;1.80;;;;;;;;;;4903578;29;20032;-76
2023/09/13 09:24:16;;;;;;;5.63;1.80;;;;;;;;;;4902681;29;20036;-76
2023/09/13 09:26:44;;;;;;;4.32;1.58;;;;;;;;;;4924056;29;20032;-77
2023/09/13 09:29:14;;;;;;;4.32;1.80;;;;;;;;;;4918476;29;20036;-76
2023/09/13 09:31:40;;;;;;;3.08;1.92;;;;;;;;;;4903819;29;20038;-76
2023/09/13 09:34:06;;;;;;;3.88;2.00;;;;;;;;;;4936954;29;20032;-76
2023/09/13 09:36:38;;;;;;;2.88;1.83;;;;;;;;;;4918443;29;20113;-77
2023/09/13 09:39:04;;;;;;;3.50;2.17;;;;;;;;;;4919387;29;20024;-76
2023/09/13 09:41:33;;;;;;;2.55;1.73;;;;;;;;;;4918861;29;20117;-76
2023/09/13 09:43:59;;;;;;;3.15;1.90;;;;;;;;;;4918678;29;20038;-76
2023/09/13 09:46:24;;;;;;;3.42;1.95;;;;;;;;;;4902748;29;20103;-76
2023/09/13 09:48:51;;;;;;;4.90;1.75;;;;;;;;;;4886850;29;20036;-77
2023/09/13 09:51:16;;;;;;;4.45;1.80;;;;;;;;;;4918503;29;20036;-77
2023/09/13 09:53:42;;;;;;;3.80;2.10;;;;;;;;;;4917231;29;20036;-76
2023/09/13 09:56:10;;;;;;;4.00;2.05;;;;;;;;;;4901955;29;20127;-76
2023/09/13 09:58:36;;;;;;;34.85;22.88;;;;;;;;;;4896215;29;20032;-80
2023/09/13 10:01:06;;;;;;;5.40;3.88;;;;;;;;;;4905704;29;20097;-76
2023/09/13 10:03:32;;;;;;;6.55;2.30;;;;;;;;;;4903077;29;20040;-76
2023/09/13 10:06:10;;;;;;;4.85;1.85;;;;;;;;;;4903397;29;20385;-78
2023/09/13 10:08:39;;;;;;;5.20;2.03;;;;;;;;;;4917729;29;20036;-77
2023/09/13 10:11:05;;;;;;;4.68;1.90;;;;;;;;;;4916758;29;20066;-77
2023/09/13 10:13:34;;;;;;;6.93;1.75;;;;;;;;;;4929514;29;20028;-77
2023/09/13 10:15:59;;;;;;;3.40;1.80;;;;;;;;;;4916597;29;20129;-77
2023/09/13 10:18:26;;;;;;;4.00;2.25;;;;;;;;;;4899174;29;20074;-77
2023/09/13 10:20:52;;;;;;;3.05;1.90;;;;;;;;;;4930750;29;20588;-77
2023/09/13 10:23:19;;;;;;;3.22;2.08;;;;;;;;;;4914391;29;20081;-76
2023/09/13 10:25:48;;;;;;;5.00;1.88;;;;;;;;;;4912024;29;20036;-76
2023/09/13 10:28:16;;;;;;;4.30;2.20;;;;;;;;;;4918023;29;20039;-76
2023/09/13 10:30:46;;;;;;;3.65;2.20;;;;;;;;;;4885585;29;20130;-77
2023/09/13 10:33:14;;;;;;;3.30;2.00;;;;;;;;;;4916870;29;20020;-77
2023/09/13 10:35:41;;;;;;;3.40;1.75;;;;;;;;;;4916637;29;20091;-77
2023/09/13 10:38:19;;;;;;;5.70;2.20;;;;;;;;;;4917070;29;20032;-77
2023/09/13 10:40:48;;;;;;;9.90;2.75;;;;;;;;;;4917314;29;20407;-77
2023/09/13 10:43:14;;;;;;;3.35;1.70;;;;;;;;;;4917650;29;20058;-76
2023/09/13 10:45:41;;;;;;;4.80;1.38;;;;;;;;;;4919074;29;20032;-77
2023/09/13 10:48:08;;;;;;;3.28;1.70;;;;;;;;;;4902932;29;20036;-77
2023/09/13 10:50:33;;;;;;;7.80;1.70;;;;;;;;;;4919396;29;20040;-77
2023/09/13 10:52:59;;;;;;;3.97;1.75;;;;;;;;;;4918075;29;20029;-77
2023/09/13 10:55:25;;;;;;;3.63;1.58;;;;;;;;;;4933863;29;20060;-77
2023/09/13 10:57:52;;;;;;;2.33;1.48;;;;;;;;;;4918038;29;20032;-76
2023/09/13 11:00:18;;;;;;;3.67;1.60;;;;;;;;;;4919437;29;20032;-76
2023/09/13 11:02:44;;;;;;;3.08;1.65;;;;;;;;;;4919729;29;20027;-76
2023/09/13 11:05:10;;;;;;;3.30;1.70;;;;;;;;;;4919489;29;20477;-76
2023/09/13 11:07:40;;;;;;;3.25;1.40;;;;;;;;;;4935078;29;20039;-78
2023/09/13 11:10:11;;;;;;;3.50;1.77;;;;;;;;;;4935159;29;20035;-77
2023/09/13 11:12:36;;;;;;;3.58;1.80;;;;;;;;;;4920086;29;20032;-77
2023/09/13 11:15:19;;;;;;;6.18;1.70;;;;;;;;;;4934095;29;20052;-77
2023/09/13 11:17:45;;;;;;;3.08;1.40;;;;;;;;;;4917938;29;20039;-76
2023/09/13 11:20:38;;;;;;;4.20;1.98;;;;;;;;;;4916144;29;20036;-75
2023/09/13 11:23:10;;;;;;;3.10;1.90;;;;;;;;;;4915716;29;20496;-75
2023/09/13 11:25:37;;;;;;;3.70;1.50;;;;;;;;;;4947318;29;20027;-77
2023/09/13 11:28:03;;;;;;;3.33;1.65;;;;;;;;;;4916960;29;20452;-77
2023/09/13 11:30:48;;;;;;;4.43;1.83;;;;;;;;;;4931575;29;20036;-77
2023/09/13 11:33:14;;;;;;;4.80;1.85;;;;;;;;;;4934305;29;20039;-79
2023/09/13 11:35:40;;;;;;;3.85;1.80;;;;;;;;;;4901987;29;20036;-78
2023/09/13 11:38:07;;;;;;;2.85;1.73;;;;;;;;;;4933942;29;20107;-78
2023/09/13 11:40:32;;;;;;;3.55;1.50;;;;;;;;;;4904666;29;20036;-78
2023/09/13 11:42:59;;;;;;;2.95;1.63;;;;;;;;;;4921371;29;20407;-79
2023/09/13 11:45:30;;;;;;;4.50;1.75;;;;;;;;;;4935397;29;20043;-78
2023/09/13 11:47:55;;;;;;;3.08;1.60;;;;;;;;;;4919339;29;20072;-78
2023/09/13 11:50:24;;;;;;;4.55;1.70;;;;;;;;;;4916923;29;20032;-78
2023/09/13 11:53:09;;;;;;;4.07;1.95;;;;;;;;;;4916946;29;20107;-78
2023/09/13 11:55:40;;;;;;;3.13;1.60;;;;;;;;;;4916597;29;20452;-78
2023/09/13 11:58:06;;;;;;;4.25;2.05;;;;;;;;;;4899869;29;20029;-79
2023/09/13 12:00:38;;;;;;;3.00;1.70;;;;;;;;;;4903719;29;20096;-78
2023/09/13 12:03:04;;;;;;;4.07;2.00;;;;;;;;;;4902842;29;20716;-79
2023/09/13 12:05:30;;;;;;;6.45;1.75;;;;;;;;;;4903281;29;20056;-79
2023/09/13 12:07:57;;;;;;;3.85;2.05;;;;;;;;;;4904484;29;20040;-79
2023/09/13 12:10:30;;;;;;;3.90;1.77;;;;;;;;;;4924205;29;20111;-79
2023/09/13 12:12:57;;;;;;;597.35;419.83;;;;;;;;;;4943406;29;20554;-80
2023/09/13 12:15:25;;;;;;;22.88;15.00;;;;;;;;;;4934528;29;20119;-79
2023/09/13 12:17:50;;;;;;;8.63;2.72;;;;;;;;;;4914733;29;20040;-79
2023/09/13 12:20:16;;;;;;;4.50;1.98;;;;;;;;;;4932424;29;20034;-79
2023/09/13 12:22:41;;;;;;;5.40;1.77;;;;;;;;;;4947354;29;20033;-80
2023/09/13 12:25:09;;;;;;;7.50;3.83;;;;;;;;;;4940878;29;20028;-80
2023/09/13 12:27:35;;;;;;;3.75;1.80;;;;;;;;;;4928983;29;20028;-80
2023/09/13 12:30:04;;;;;;;7.30;4.20;;;;;;;;;;4897121;29;20586;-79
2023/09/13 12:32:32;;;;;;;10.25;5.05;;;;;;;;;;4919595;29;20139;-79
2023/09/13 12:34:58;;;;;;;6.57;4.03;;;;;;;;;;4935310;29;20119;-79
2023/09/13 12:37:23;;;;;;;5.32;3.20;;;;;;;;;;4904724;29;20074;-77
2023/09/13 12:39:49;;;;;;;6.70;3.67;;;;;;;;;;4905546;29;20218;-79
2023/09/13 12:42:15;;;;;;;5.70;3.13;;;;;;;;;;4911790;29;20067;-78
2023/09/13 12:44:41;;;;;;;4.05;2.08;;;;;;;;;;4922972;29;20040;-79
2023/09/13 12:47:07;;;;;;;6.43;2.95;;;;;;;;;;4907561;29;20388;-78
2023/09/13 12:49:39;;;;;;;5.22;2.47;;;;;;;;;;4892390;29;20042;-78
2023/09/13 12:52:05;;;;;;;4.43;2.10;;;;;;;;;;4889895;29;20124;-78
2023/09/13 12:54:34;;;;;;;4.47;1.63;;;;;;;;;;4934949;29;20076;-78
2023/09/13 12:57:02;;;;;;;3.83;1.77;;;;;;;;;;4902970;29;20424;-78
2023/09/13 12:59:28;;;;;;;;;;;;;;;;;;4904437;29;20115;-79
2023/09/13 13:01:54;;;;;;;4.50;1.95;;;;;;;;;;4903469;29;20043;-78
2023/09/13 13:04:20;;;;;;;2.72;1.40;;;;;;;;;;4888352;29;20040;-79
2023/09/13 13:06:55;;;;;;;5.28;1.67;;;;;;;;;;4887397;29;20032;-79
2023/09/13 13:09:24;;;;;;;4.47;2.00;;;;;;;;;;4920811;29;20048;-79
2023/09/13 13:11:50;;;;;;;4.57;1.83;;;;;;;;;;4921128;29;20036;-80
2023/09/13 13:14:17;;;;;;;19.65;12.75;;;;;;;;;;4921605;29;20031;-79
2023/09/13 13:16:44;;;;;;;10.45;5.55;;;;;;;;;;4903991;29;20037;-78
2023/09/13 13:19:10;;;;;;;15.32;8.63;;;;;;;;;;4904620;29;20036;-80
2023/09/13 13:21:38;;;;;;;13.75;7.10;;;;;;;;;;4904156;29;20095;-78
2023/09/13 13:24:04;;;;;;;9.45;6.13;;;;;;;;;;4919138;29;20068;-78
2023/09/13 13:26:30;;;;;;;6.90;4.20;;;;;;;;;;4932115;29;20092;-79
2023/09/13 13:28:55;;;;;;;6.40;2.60;;;;;;;;;;4903897;29;20043;-78
2023/09/13 13:31:21;;;;;;;6.90;4.30;;;;;;;;;;4902026;29;20491;-79
2023/09/13 13:33:47;;;;;;;9.73;5.50;;;;;;;;;;4908914;29;20033;-78
2023/09/13 13:36:13;;;;;;;6.15;3.97;;;;;;;;;;4900545;29;20112;-78
2023/09/13 13:38:42;;;;;;;6.32;3.63;;;;;;;;;;4914794;29;20128;-78
2023/09/13 13:41:11;;;;;;;3.80;2.20;;;;;;;;;;4899773;29;20036;-78
2023/09/13 13:43:39;;;;;;;3.72;1.80;;;;;;;;;;4885577;29;20051;-79
2023/09/13 13:46:06;;;;;;;4.15;1.65;;;;;;;;;;4901499;29;20028;-78
2023/09/13 13:48:35;;;;;;;4.88;1.80;;;;;;;;;;4884977;29;20047;-78
2023/09/13 13:51:03;;;;;;;5.03;1.70;;;;;;;;;;4899096;29;20047;-78
2023/09/13 13:53:29;;;;;;;4.55;1.92;;;;;;;;;;4916589;29;20392;-79
2023/09/13 13:55:57;;;;;;;3.75;1.73;;;;;;;;;;4933150;29;20036;-79
2023/09/13 13:58:23;;;;;;;3.10;1.73;;;;;;;;;;4901904;29;20207;-79
2023/09/13 14:00:50;;;;;;;3.33;1.80;;;;;;;;;;4915477;29;20540;-79
2023/09/13 14:03:21;;;;;;;3.55;1.50;;;;;;;;;;4916670;29;20114;-80
2023/09/13 14:05:47;;;;;;;5.53;1.98;;;;;;;;;;4917185;29;20401;-79
2023/09/13 14:08:16;;;;;;;7.05;2.00;;;;;;;;;;4918133;29;20171;-80
2023/09/13 14:10:45;;;;;;;3.97;1.70;;;;;;;;;;4919260;29;20092;-79
2023/09/13 14:13:12;;;;;;;2.92;1.60;;;;;;;;;;4899500;29;20032;-78
2023/09/13 14:15:38;;;;;;;3.15;1.67;;;;;;;;;;4915719;29;20388;-78
2023/09/13 14:18:04;;;;;;;3.70;1.73;;;;;;;;;;4918050;29;20040;-78
2023/09/13 14:20:30;;;;;;;4.65;1.63;;;;;;;;;;4920641;29;20040;-79
2023/09/13 14:22:56;;;;;;;3.05;1.58;;;;;;;;;;4904205;29;20036;-79
2023/09/13 14:25:22;;;;;;;4.75;2.00;;;;;;;;;;4922926;29;20059;-79
2023/09/13 14:27:48;;;;;;;4.43;1.83;;;;;;;;;;4927164;29;20052;-78
2023/09/13 14:30:14;;;;;;;2.85;1.63;;;;;;;;;;4924291;29;20084;-78
2023/09/13 14:32:39;;;;;;;4.95;1.90;;;;;;;;;;4918912;29;20036;-78
2023/09/13 14:35:07;;;;;;;4.35;2.00;;;;;;;;;;4922236;29;20034;-78
2023/09/13 14:37:33;;;;;;;4.40;1.90;;;;;;;;;;4922491;29;20028;-78